Ponca, AR (72670)

1:49 PM CDT on April 25, 2017 (GMT -0500)
Parthenon AR | | Change Station
Active Advisory: Lake Wind Advisory

Elev 1119 ft 35.95 °N, 93.28 °W | Updated 11 minutes ago

Clear
Clear
77.0 °F
Feels Like 79 °F
N
5.0
Wind Variable Wind from SSE
Gusts 20.0 mph

Today
High -- | Low -- °F
--% Chance of Precip.
Yesterday
High -- | Low -- °F
Precip. -- in
Pressure 29.51 in
Visibility 10.0 miles
Clouds Clear
Heat Index 79 °F
Dew Point 58 °F
Humidity 53%
Rainfall 0.00 in
Snow Depth Not available.
6:27 AM 7:55 PM
Waning Crescent, 1% visible
METAR KHRO 251753Z AUTO 17017G24KT 10SM CLR 24/12 A2954 RMK AO2 PK WND 16029/1654 SLP993 T02440122 10256 20111 56017
Pressure 29.51 in
Visibility 10.0 miles
Clouds Clear
Heat Index 79 °F
Dew Point 58 °F
Humidity 53%
Rainfall 0.00 in
Snow Depth Not available.
6:27 AM 7:55 PM
Waning Crescent, 1% visible
METAR KHRO 251753Z AUTO 17017G24KT 10SM CLR 24/12 A2954 RMK AO2 PK WND 16029/1654 SLP993 T02440122 10256 20111 56017

Get Your Daily Forecast Email!

Thanks for signing up!

Be on the lookout for a verification email in your inbox.

You'll start receiving severe weather alerts in your inbox..

×

10-Day Weather Forecast

Almanac

Astronomy

Apr. 25, 2017 Rise Set
Actual Time
Civil Twilight
Nautical Twilight
Astronomical Twilight
Moon
Length of Visible Light
Length of Day
Tomorrow will be .
, % of the Moon is Illuminated

Today's Extremes

State Highs State Lows

Community

WunderPhotos

WunderBlog® & News

Nearby

Air Quality

  Air Quality AQ Index Pollutant
Not available.

Snow Depth

Station Depth Elevation

Earthquake Activity

City Distance Mag. Time & Date
Minimum magnitude displayed is 2.5.

Coastal Water Temperatures

Place Temperature

Stations

Nearby Weather Stations

Station Location Temp. Windchill Dew Point Humidity Wind Precip. Elev Updated Type
                   

Watches & Warnings

Lake Wind Advisory
Issued: 11:48 AM CDT Apr. 25, 2017 – National Weather Service

... Lake Wind Advisory in effect until 7 PM CDT this evening...

The National Weather Service in Little Rock has issued a lake
Wind Advisory, which is in effect until 7 PM CDT this evening.

* Event... gusty winds are expected through the afternoon and into
the early evening hours.

* Areas affected... a large part of Arkansas.

* Timing... through early this evening.

* Winds... 20-25 mph, with higher gusts.

* Impacts... gusty winds will create rough conditions on area
bodies of water.

Precautionary/preparedness actions...

A lake Wind Advisory indicates that winds will cause rough chop
on area lakes. Small boats will be especially prone to capsizing.



57